createdAt,value
2017-11-14T00:00:00.737Z,18.17
2017-11-14T00:02:28.263Z,19.67
2017-11-14T00:04:55.764Z,15.83
2017-11-14T00:07:23.291Z,14.93
2017-11-14T00:09:50.801Z,14.07
2017-11-14T00:12:19.089Z,17.50
2017-11-14T00:14:46.605Z,16.40
2017-11-14T00:17:14.134Z,14.80
2017-11-14T00:19:41.651Z,14.37
2017-11-14T00:22:09.940Z,16.73
2017-11-14T00:24:37.448Z,13.90
2017-11-14T00:27:04.976Z,17.07
2017-11-14T00:29:32.529Z,16.30
2017-11-14T00:32:00.061Z,14.00
2017-11-14T00:34:28.340Z,16.27
2017-11-14T00:36:55.848Z,14.93
2017-11-14T00:39:23.372Z,16.67
2017-11-14T00:41:50.884Z,14.70
2017-11-14T00:44:18.427Z,17.60
2017-11-14T00:46:45.931Z,16.43
2017-11-14T00:49:13.461Z,16.77
2017-11-14T00:51:40.965Z,16.10
2017-11-14T00:54:08.489Z,15.80
2017-11-14T00:56:36.760Z,18.53
2017-11-14T00:59:05.053Z,18.37
2017-11-14T01:01:33.327Z,16.43
2017-11-14T01:04:01.617Z,18.97
2017-11-14T01:06:29.133Z,17.50
2017-11-14T01:08:56.660Z,15.50
2017-11-14T01:11:24.171Z,16.03
2017-11-14T01:13:52.484Z,15.60
2017-11-14T01:16:20.004Z,15.40
2017-11-14T01:18:48.295Z,15.37
2017-11-14T01:21:15.805Z,14.73
2017-11-14T01:23:43.328Z,16.23
2017-11-14T01:26:10.831Z,14.77
2017-11-14T01:28:38.376Z,14.00
2017-11-14T01:31:06.653Z,15.07
2017-11-14T01:33:34.180Z,15.63
2017-11-14T01:36:01.705Z,16.50
2017-11-14T01:38:29.976Z,14.83
2017-11-14T01:40:58.264Z,15.20
2017-11-14T01:43:26.527Z,16.37
2017-11-14T01:45:54.817Z,16.17
2017-11-14T01:48:23.083Z,16.80
2017-11-14T01:50:51.372Z,19.10
2017-11-14T01:53:18.881Z,18.87
2017-11-14T01:55:47.172Z,18.03
2017-11-14T01:58:15.460Z,17.67
2017-11-14T02:00:47.936Z,20.03
2017-11-14T02:03:16.213Z,18.80
2017-11-14T02:05:44.503Z,20.33
2017-11-14T02:08:12.776Z,19.30
2017-11-14T02:10:41.116Z,16.67
2017-11-14T02:13:08.628Z,14.97
2017-11-14T02:15:36.152Z,14.60
2017-11-14T02:18:03.667Z,17.53
2017-11-14T02:20:31.188Z,16.80
2017-11-14T02:22:59.460Z,16.30
2017-11-14T02:25:27.748Z,15.63
2017-11-14T02:27:55.261Z,17.57
2017-11-14T02:30:22.800Z,17.17
2017-11-14T02:32:50.312Z,18.77
2017-11-14T02:35:18.604Z,17.03
2017-11-14T02:37:46.111Z,14.70
2017-11-14T02:40:13.638Z,16.33
2017-11-14T02:42:41.166Z,15.93
2017-11-14T02:45:09.440Z,15.63
2017-11-14T02:47:37.729Z,15.90
2017-11-14T02:50:05.237Z,16.33
2017-11-14T02:52:32.763Z,15.80
2017-11-14T02:55:00.272Z,15.43
2017-11-14T02:57:27.793Z,15.23
2017-11-14T02:59:55.307Z,16.03
2017-11-14T03:02:22.840Z,15.37
2017-11-14T03:04:50.348Z,16.90
2017-11-14T03:07:17.871Z,16.50
2017-11-14T03:09:46.144Z,17.07
2017-11-14T03:12:14.436Z,14.23
2017-11-14T03:14:41.943Z,15.63
2017-11-14T03:17:10.232Z,16.37
2017-11-14T03:19:37.743Z,14.63
2017-11-14T03:22:05.288Z,15.70
2017-11-14T03:24:32.797Z,15.67
2017-11-14T03:27:00.313Z,15.70
2017-11-14T03:29:27.829Z,15.63
2017-11-14T03:31:55.354Z,16.20
2017-11-14T03:34:22.861Z,15.37
2017-11-14T03:36:51.132Z,14.93
2017-11-14T03:39:19.421Z,16.97
2017-11-14T03:41:47.701Z,17.33
2017-11-14T03:44:15.988Z,18.57
2017-11-14T03:46:43.501Z,16.80
2017-11-14T03:49:11.033Z,18.07
2017-11-14T03:51:38.577Z,17.50
2017-11-14T03:54:06.105Z,20.57
2017-11-14T03:56:34.372Z,18.67
2017-11-14T03:59:02.664Z,18.17
2017-11-14T04:01:30.936Z,20.83
2017-11-14T04:03:59.230Z,20.03
2017-11-14T04:06:26.750Z,20.53
2017-11-14T04:08:55.053Z,19.70
2017-11-14T04:11:22.565Z,15.27
2017-11-14T04:13:50.088Z,16.03
2017-11-14T04:16:17.592Z,16.07
2017-11-14T04:18:45.120Z,13.73
2017-11-14T04:21:12.635Z,15.27
2017-11-14T04:23:40.924Z,15.60
2017-11-14T04:26:08.428Z,14.90
2017-11-14T04:28:35.932Z,15.83
2017-11-14T04:31:03.457Z,14.97
2017-11-14T04:33:30.966Z,15.27
2017-11-14T04:35:58.500Z,18.70
2017-11-14T04:38:26.768Z,13.07
2017-11-14T04:40:55.080Z,15.27
2017-11-14T04:43:22.592Z,17.23
2017-11-14T04:45:50.111Z,14.53
2017-11-14T04:48:17.615Z,13.47
2017-11-14T04:50:45.905Z,15.33
2017-11-14T04:53:14.178Z,14.40
2017-11-14T04:55:42.472Z,14.53
2017-11-14T04:58:10.045Z,12.50
2017-11-14T05:00:37.572Z,12.87
2017-11-14T05:03:05.845Z,14.20
2017-11-14T05:05:34.140Z,11.90
2017-11-14T05:08:01.668Z,15.10
2017-11-14T05:10:29.960Z,13.93
2017-11-14T05:12:58.232Z,13.93
2017-11-14T05:15:26.520Z,14.90
2017-11-14T05:17:54.024Z,16.20
2017-11-14T05:20:22.299Z,16.50
2017-11-14T05:22:49.829Z,15.57
2017-11-14T05:25:17.359Z,17.90
2017-11-14T05:27:44.896Z,17.80
2017-11-14T05:30:12.405Z,16.70
2017-11-14T05:32:39.937Z,13.47
2017-11-14T05:35:07.460Z,15.97
2017-11-14T05:37:34.987Z,18.27
2017-11-14T05:40:02.503Z,16.90
2017-11-14T05:42:30.793Z,16.67
2017-11-14T05:44:58.330Z,16.93
2017-11-14T05:47:26.624Z,14.20
2017-11-14T05:49:54.893Z,14.00
2017-11-14T05:52:23.168Z,14.73
2017-11-14T05:54:51.456Z,14.00
2017-11-14T05:57:18.964Z,14.13
2017-11-14T05:59:46.488Z,14.77
2017-11-14T06:02:14.000Z,12.37
2017-11-14T06:04:41.526Z,14.60
2017-11-14T06:07:09.800Z,15.57
2017-11-14T06:09:37.323Z,15.30
2017-11-14T06:12:04.888Z,14.47
2017-11-14T06:14:32.458Z,14.40
2017-11-14T06:17:00.001Z,13.43
2017-11-14T06:19:27.524Z,14.33
2017-11-14T06:21:55.030Z,12.67
2017-11-14T06:24:22.694Z,13.60
2017-11-14T06:26:50.200Z,12.27
2017-11-14T06:29:17.705Z,12.27
2017-11-14T06:31:45.228Z,13.40
2017-11-14T06:34:13.498Z,12.07
2017-11-14T06:36:41.791Z,14.40
2017-11-14T06:39:10.066Z,13.70
2017-11-14T06:41:37.605Z,12.13
2017-11-14T06:44:05.112Z,13.50
2017-11-14T06:46:32.637Z,15.10
2017-11-14T06:49:00.909Z,14.87
2017-11-14T06:51:29.200Z,16.47
2017-11-14T06:53:56.712Z,16.00
2017-11-14T06:56:24.236Z,15.93
2017-11-14T06:58:51.748Z,15.47
2017-11-14T07:01:19.285Z,15.27
2017-11-14T07:03:46.795Z,13.00
2017-11-14T07:06:14.330Z,13.00
2017-11-14T07:08:42.600Z,14.33
2017-11-14T07:11:10.125Z,15.10
2017-11-14T07:13:37.633Z,14.77
2017-11-14T07:16:05.933Z,14.90
2017-11-14T07:18:33.441Z,13.53
2017-11-14T07:21:00.969Z,15.47
2017-11-14T07:23:28.480Z,16.43
2017-11-14T07:25:56.774Z,14.07
2017-11-14T07:28:24.336Z,14.50
2017-11-14T07:30:51.876Z,16.50
2017-11-14T07:33:20.148Z,13.30
2017-11-14T07:35:48.454Z,14.03
2017-11-14T07:38:16.016Z,14.23
2017-11-14T07:40:44.077Z,14.87
2017-11-14T07:43:11.600Z,15.40
2017-11-14T07:45:39.111Z,15.27
2017-11-14T07:48:06.652Z,13.77
2017-11-14T07:50:34.213Z,14.53
2017-11-14T07:53:01.743Z,13.20
2017-11-14T07:55:30.061Z,14.30
2017-11-14T07:57:57.598Z,16.40
2017-11-14T08:00:25.103Z,15.60
2017-11-14T08:02:52.745Z,14.40
2017-11-14T08:05:20.253Z,16.20
2017-11-14T08:07:48.547Z,14.63
2017-11-14T08:10:16.052Z,15.67
2017-11-14T08:12:43.668Z,14.77
2017-11-14T08:15:11.578Z,14.30
2017-11-14T08:17:39.119Z,14.20
2017-11-14T08:20:06.640Z,15.40
2017-11-14T08:22:34.148Z,15.67
2017-11-14T08:25:01.674Z,16.27
2017-11-14T08:27:29.224Z,13.20
2017-11-14T08:29:56.789Z,13.37
2017-11-14T08:32:24.349Z,13.80
2017-11-14T08:34:51.899Z,16.17
2017-11-14T08:37:19.436Z,15.90
2017-11-14T08:39:47.731Z,18.80
2017-11-14T08:42:16.124Z,15.03
2017-11-14T08:44:43.671Z,15.80
2017-11-14T08:47:11.184Z,17.70
2017-11-14T08:49:38.708Z,15.77
2017-11-14T08:52:06.265Z,13.00
2017-11-14T08:54:33.812Z,15.03
2017-11-14T08:57:01.317Z,16.80
2017-11-14T08:59:28.923Z,16.70
2017-11-14T09:01:56.437Z,15.40
2017-11-14T09:04:23.943Z,17.03
2017-11-14T09:06:51.504Z,15.00
2017-11-14T09:09:19.003Z,16.23
2017-11-14T09:11:46.629Z,15.30
2017-11-14T09:14:14.137Z,15.33
2017-11-14T09:16:41.731Z,15.03
2017-11-14T09:19:09.304Z,15.40
2017-11-14T09:21:36.828Z,15.37
2017-11-14T09:24:05.132Z,15.07
2017-11-14T09:26:32.697Z,14.53
2017-11-14T09:29:00.253Z,14.90
2017-11-14T09:31:27.784Z,14.37
2017-11-14T09:33:56.052Z,14.80
2017-11-14T09:36:23.645Z,14.50
2017-11-14T09:38:51.205Z,14.47
2017-11-14T09:41:18.771Z,17.77
2017-11-14T09:43:46.317Z,17.60
2017-11-14T09:46:13.841Z,17.33
2017-11-14T09:48:42.112Z,16.77
2017-11-14T09:51:10.537Z,15.33
2017-11-14T09:53:38.049Z,15.73
2017-11-14T09:56:05.571Z,13.40
2017-11-14T09:58:33.107Z,13.50
2017-11-14T10:01:00.672Z,14.10
2017-11-14T10:03:28.228Z,14.20
2017-11-14T10:05:55.824Z,13.80
2017-11-14T10:08:23.331Z,15.00
2017-11-14T10:10:51.603Z,13.80
2017-11-14T10:13:20.001Z,12.20
2017-11-14T10:15:47.556Z,13.50
2017-11-14T10:18:15.116Z,14.93
2017-11-14T10:20:42.625Z,13.90
2017-11-14T10:23:10.948Z,12.23
2017-11-14T10:25:38.461Z,11.80
2017-11-14T10:28:06.157Z,12.10
2017-11-14T10:30:34.420Z,10.90
2017-11-14T10:33:02.708Z,14.10
2017-11-14T10:35:31.053Z,12.00
2017-11-14T10:38:00.091Z,11.67
2017-11-14T10:40:27.597Z,11.10
2017-11-14T10:42:55.116Z,10.57
2017-11-14T10:45:22.678Z,10.77
2017-11-14T10:47:50.227Z,10.23
2017-11-14T10:50:17.788Z,9.70
2017-11-14T10:52:45.316Z,9.87
2017-11-14T10:55:13.592Z,10.80
2017-11-14T10:57:41.904Z,11.13
2017-11-14T11:00:09.399Z,10.50
2017-11-14T11:02:36.919Z,10.63
2017-11-14T11:05:04.880Z,10.93
2017-11-14T11:07:32.399Z,11.00
2017-11-14T11:09:59.905Z,11.50
2017-11-14T11:12:27.448Z,10.90
2017-11-14T11:14:54.954Z,11.27
2017-11-14T11:17:22.460Z,11.00
2017-11-14T11:19:49.980Z,11.60
2017-11-14T11:22:17.488Z,12.60
2017-11-14T11:24:45.009Z,11.97
2017-11-14T11:27:12.520Z,12.93
2017-11-14T11:29:40.036Z,12.43
2017-11-14T11:32:08.307Z,11.63
2017-11-14T11:34:36.591Z,11.80
2017-11-14T11:37:04.864Z,12.70
2017-11-14T11:39:33.152Z,13.43
2017-11-14T11:42:01.421Z,14.40
2017-11-14T11:44:29.715Z,15.87
2017-11-14T11:46:57.231Z,14.50
2017-11-14T11:49:24.748Z,14.60
2017-11-14T11:51:52.256Z,15.53
2017-11-14T11:54:20.550Z,15.40
2017-11-14T11:56:48.062Z,15.20
2017-11-14T11:59:15.580Z,14.23
2017-11-14T12:01:43.084Z,13.10
2017-11-14T12:04:10.605Z,12.90
2017-11-14T12:06:38.112Z,11.80
2017-11-14T12:09:05.656Z,12.10
2017-11-14T12:11:33.183Z,12.23
2017-11-14T12:14:00.684Z,11.13
2017-11-14T12:16:28.212Z,12.13
2017-11-14T12:18:55.716Z,12.03
2017-11-14T12:21:23.999Z,12.00
2017-11-14T12:23:52.274Z,11.53
2017-11-14T12:26:20.571Z,11.97
2017-11-14T12:28:48.081Z,12.80
2017-11-14T12:31:15.603Z,12.27
2017-11-14T12:33:43.111Z,11.50
2017-11-14T12:36:10.633Z,13.03
2017-11-14T12:38:38.140Z,14.27
2017-11-14T12:41:06.431Z,13.07
2017-11-14T12:43:33.936Z,13.20
2017-11-14T12:46:01.464Z,12.20
2017-11-14T12:48:28.972Z,12.50
2017-11-14T12:50:56.498Z,11.30
2017-11-14T12:53:23.999Z,12.10
2017-11-14T12:55:52.284Z,10.93
2017-11-14T12:58:20.548Z,12.40
2017-11-14T13:00:48.836Z,13.20
2017-11-14T13:03:17.111Z,13.60
2017-11-14T13:05:45.402Z,12.97
2017-11-14T13:08:12.926Z,11.70
2017-11-14T13:10:40.447Z,11.57
2017-11-14T13:13:07.956Z,11.70
2017-11-14T13:15:36.226Z,11.30
2017-11-14T13:18:04.516Z,11.73
2017-11-14T13:20:32.783Z,11.33
2017-11-14T13:23:01.072Z,11.60
2017-11-14T13:25:28.597Z,10.80
2017-11-14T13:27:56.121Z,10.73
2017-11-14T13:30:23.628Z,11.73
2017-11-14T13:32:51.971Z,11.60
2017-11-14T13:35:19.479Z,11.80
2017-11-14T13:37:47.763Z,11.10
2017-11-14T13:40:15.264Z,11.50
2017-11-14T13:42:42.785Z,11.13
2017-11-14T13:45:10.287Z,11.77
2017-11-14T13:47:37.814Z,12.23
2017-11-14T13:50:05.332Z,11.20
2017-11-14T13:52:33.620Z,11.57
2017-11-14T13:55:01.892Z,11.57
2017-11-14T13:57:30.189Z,11.90
2017-11-14T13:59:57.696Z,10.30
2017-11-14T14:02:25.260Z,10.87
2017-11-14T14:04:52.768Z,10.80
2017-11-14T14:07:20.274Z,9.27
2017-11-14T14:09:47.792Z,11.87
2017-11-14T14:12:15.311Z,10.70
2017-11-14T14:14:43.595Z,10.57
2017-11-14T14:17:11.860Z,9.90
2017-11-14T14:19:40.148Z,9.70
2017-11-14T14:22:08.424Z,13.60
2017-11-14T14:24:36.716Z,13.87
2017-11-14T14:27:04.240Z,12.40
2017-11-14T14:29:31.764Z,11.73
2017-11-14T14:31:59.268Z,10.53
2017-11-14T14:34:27.556Z,13.70
2017-11-14T14:36:55.064Z,11.80
2017-11-14T14:39:22.583Z,11.43
2017-11-14T14:41:50.091Z,12.57
2017-11-14T14:44:17.611Z,11.10
2017-11-14T14:46:45.116Z,10.90
2017-11-14T14:49:12.636Z,11.30
2017-11-14T14:51:40.151Z,10.77
2017-11-14T14:54:08.436Z,10.53
2017-11-14T14:56:35.935Z,10.40
2017-11-14T14:59:03.451Z,11.10
2017-11-14T15:01:30.957Z,11.73
2017-11-14T15:03:58.488Z,11.30
2017-11-14T15:06:25.996Z,11.07
2017-11-14T15:08:53.533Z,12.97
2017-11-14T15:11:21.036Z,10.43
2017-11-14T15:13:49.311Z,10.43
2017-11-14T15:16:16.843Z,9.50
2017-11-14T15:18:44.344Z,10.20
2017-11-14T15:21:11.859Z,10.93
2017-11-14T15:23:39.360Z,10.50
2017-11-14T15:26:06.903Z,11.73
2017-11-14T15:28:35.164Z,12.30
2017-11-14T15:31:03.455Z,13.37
2017-11-14T15:33:31.719Z,17.30
2017-11-14T15:36:00.012Z,14.10
2017-11-14T15:38:27.520Z,11.23
2017-11-14T15:40:55.048Z,11.20
2017-11-14T15:43:22.556Z,12.97
2017-11-14T15:45:50.075Z,12.93
2017-11-14T15:48:17.588Z,11.90
2017-11-14T15:50:46.090Z,14.53
2017-11-14T15:53:13.603Z,13.97
2017-11-14T15:55:41.149Z,13.60
2017-11-14T15:58:08.669Z,12.67
2017-11-14T16:00:36.179Z,14.10
2017-11-14T16:03:03.726Z,13.77
2017-11-14T16:05:31.224Z,12.10
2017-11-14T16:07:59.512Z,14.17
2017-11-14T16:10:27.020Z,14.47
2017-11-14T16:12:54.553Z,11.60
2017-11-14T16:15:22.063Z,10.43
2017-11-14T16:17:50.360Z,11.27
2017-11-14T16:20:17.864Z,10.80
2017-11-14T16:22:45.494Z,10.00
2017-11-14T16:25:12.992Z,10.37
2017-11-14T16:27:40.507Z,10.03
2017-11-14T16:30:08.014Z,11.00
2017-11-14T16:32:35.541Z,12.43
2017-11-14T16:35:03.040Z,12.70
2017-11-14T16:37:30.561Z,13.83
2017-11-14T16:39:58.060Z,14.80
2017-11-14T16:42:26.357Z,15.10
2017-11-14T16:44:53.924Z,10.97
2017-11-14T16:47:22.144Z,11.47
2017-11-14T16:49:49.648Z,10.80
2017-11-14T16:52:17.175Z,11.03
2017-11-14T16:54:44.681Z,11.87
2017-11-14T16:57:12.240Z,11.20
2017-11-14T16:59:39.743Z,10.10
2017-11-14T17:02:07.260Z,9.97
2017-11-14T17:04:34.764Z,10.13
2017-11-14T17:07:02.375Z,10.07
2017-11-14T17:09:29.883Z,10.10
2017-11-14T17:11:57.399Z,9.80
2017-11-14T17:14:24.932Z,10.10
2017-11-14T17:16:52.508Z,11.27
2017-11-14T17:19:20.008Z,11.77
2017-11-14T17:21:47.532Z,10.90
2017-11-14T17:24:15.046Z,12.80
2017-11-14T17:26:43.337Z,12.90
2017-11-14T17:29:10.847Z,12.23
2017-11-14T17:31:38.380Z,13.30
2017-11-14T17:34:05.897Z,11.03
2017-11-14T17:36:34.188Z,12.27
2017-11-14T17:39:01.688Z,13.10
2017-11-14T17:41:29.312Z,14.30
2017-11-14T17:43:56.910Z,12.70
2017-11-14T17:46:24.535Z,12.47
2017-11-14T17:48:52.961Z,12.50
2017-11-14T17:51:20.483Z,13.17
2017-11-14T17:53:48.012Z,14.83
2017-11-14T17:56:16.507Z,13.33
2017-11-14T17:58:44.064Z,13.13
2017-11-14T18:01:11.577Z,15.97
2017-11-14T18:03:39.868Z,17.10
2017-11-14T18:06:07.393Z,16.00
2017-11-14T18:08:34.912Z,13.63
2017-11-14T18:11:02.782Z,15.27
2017-11-14T18:13:30.304Z,15.57
2017-11-14T18:15:57.808Z,14.80
2017-11-14T18:18:25.356Z,13.50
2017-11-14T18:20:52.929Z,17.57
2017-11-14T18:23:20.479Z,15.73
2017-11-14T18:25:47.988Z,13.90
2017-11-14T18:28:15.504Z,16.93
2017-11-14T18:30:43.011Z,14.30
2017-11-14T18:33:11.532Z,13.60
2017-11-14T18:35:39.040Z,13.70
2017-11-14T18:38:06.564Z,14.20
2017-11-14T18:40:34.639Z,14.00
2017-11-14T18:43:02.177Z,13.10
2017-11-14T18:45:29.680Z,12.90
2017-11-14T18:47:57.195Z,14.13
2017-11-14T18:50:24.700Z,17.77
2017-11-14T18:52:52.229Z,14.60
2017-11-14T18:55:19.780Z,18.10
2017-11-14T18:57:47.281Z,14.30
2017-11-14T19:00:16.498Z,16.10
2017-11-14T19:02:44.768Z,16.20
2017-11-14T19:05:12.361Z,22.63
2017-11-14T19:07:39.864Z,38.20
2017-11-14T19:10:08.224Z,33.20
2017-11-14T19:12:35.732Z,33.27
2017-11-14T19:15:04.040Z,21.40
2017-11-14T19:17:31.547Z,31.03
2017-11-14T19:19:59.137Z,25.60
2017-11-14T19:22:27.319Z,26.00
2017-11-14T19:24:54.877Z,24.63
2017-11-14T19:27:22.380Z,22.63
2017-11-14T19:29:49.907Z,19.33
2017-11-14T19:32:17.415Z,18.50
2017-11-14T19:34:45.708Z,16.03
2017-11-14T19:37:13.981Z,12.57
2017-11-14T19:39:42.279Z,13.53
2017-11-14T19:42:09.792Z,14.40
2017-11-14T19:44:38.065Z,12.30
2017-11-14T19:47:05.589Z,12.03
2017-11-14T19:49:33.142Z,12.53
2017-11-14T19:52:00.795Z,13.80
2017-11-14T19:54:28.379Z,13.00
2017-11-14T19:56:56.016Z,12.13
2017-11-14T19:59:23.525Z,13.43
2017-11-14T20:01:51.059Z,14.27
2017-11-14T20:04:18.567Z,13.47
2017-11-14T20:06:46.848Z,14.30
2017-11-14T20:09:15.443Z,12.10
2017-11-14T20:11:43.016Z,13.60
2017-11-14T20:14:10.536Z,14.20
2017-11-14T20:16:38.850Z,12.37
2017-11-14T20:19:06.397Z,14.70
2017-11-14T20:21:33.936Z,12.50
2017-11-14T20:24:02.208Z,13.03
2017-11-14T20:26:30.503Z,13.00
2017-11-14T20:28:58.008Z,12.60
2017-11-14T20:31:25.528Z,13.77
2017-11-14T20:33:53.035Z,12.63
2017-11-14T20:36:20.554Z,13.90
2017-11-14T20:38:48.076Z,13.73
2017-11-14T20:41:15.620Z,12.47
2017-11-14T20:43:43.136Z,12.50
2017-11-14T20:46:10.655Z,15.10
2017-11-14T20:48:39.026Z,13.00
2017-11-14T20:51:07.330Z,13.97
2017-11-14T20:53:34.851Z,13.20
2017-11-14T20:56:02.364Z,14.03
2017-11-14T20:58:29.885Z,15.23
2017-11-14T21:00:59.331Z,14.37
2017-11-14T21:03:26.847Z,15.10
2017-11-14T21:05:55.120Z,14.00
2017-11-14T21:08:23.400Z,15.50
2017-11-14T21:10:50.924Z,14.00
2017-11-14T21:13:18.452Z,13.27
2017-11-14T21:15:45.969Z,14.67
2017-11-14T21:18:14.262Z,15.70
2017-11-14T21:20:41.768Z,13.97
2017-11-14T21:23:10.806Z,14.33
2017-11-14T21:25:38.308Z,13.67
2017-11-14T21:28:05.837Z,15.03
2017-11-14T21:30:33.340Z,13.37
2017-11-14T21:33:00.890Z,14.30
2017-11-14T21:35:28.400Z,14.50
2017-11-14T21:37:55.899Z,17.23
2017-11-14T21:40:23.436Z,19.10
2017-11-14T21:42:50.948Z,18.50
2017-11-14T21:45:18.475Z,17.50
2017-11-14T21:47:45.985Z,16.93
2017-11-14T21:50:14.276Z,17.20
2017-11-14T21:52:41.780Z,16.10
2017-11-14T21:55:09.300Z,16.30
2017-11-14T21:57:36.799Z,15.77
2017-11-14T22:00:04.418Z,17.03
2017-11-14T22:02:31.919Z,17.53
2017-11-14T22:04:59.536Z,14.10
2017-11-14T22:07:27.048Z,15.07
2017-11-14T22:09:55.348Z,16.90
2017-11-14T22:12:22.860Z,17.77
2017-11-14T22:14:50.381Z,18.97
2017-11-14T22:17:17.883Z,18.00
2017-11-14T22:19:45.404Z,19.07
2017-11-14T22:22:12.912Z,18.40
2017-11-14T22:24:40.436Z,17.10
2017-11-14T22:27:07.934Z,19.40
2017-11-14T22:29:36.227Z,21.23
2017-11-14T22:32:04.495Z,18.40
2017-11-14T22:34:32.783Z,18.20
2017-11-14T22:37:00.300Z,19.50
2017-11-14T22:39:27.834Z,17.60
2017-11-14T22:41:55.340Z,20.30
2017-11-14T22:44:23.632Z,18.37
2017-11-14T22:46:51.156Z,19.70
2017-11-14T22:49:18.661Z,19.20
2017-11-14T22:51:46.184Z,36.93
2017-11-14T22:54:14.864Z,30.83
2017-11-14T22:56:42.384Z,19.60
2017-11-14T22:59:10.105Z,20.03
2017-11-14T23:01:37.637Z,18.20
2017-11-14T23:04:06.668Z,18.00
2017-11-14T23:06:34.740Z,17.37
2017-11-14T23:09:02.724Z,19.00
2017-11-14T23:11:30.297Z,20.80
2017-11-14T23:13:57.805Z,20.83
2017-11-14T23:16:26.087Z,21.20
2017-11-14T23:18:54.354Z,21.70
2017-11-14T23:21:22.639Z,20.03
2017-11-14T23:23:50.912Z,19.90
2017-11-14T23:26:19.295Z,21.87
2017-11-14T23:28:47.584Z,21.00
2017-11-14T23:31:15.121Z,19.23
2017-11-14T23:33:43.392Z,21.27
2017-11-14T23:36:11.659Z,18.43
2017-11-14T23:38:39.588Z,19.10
2017-11-14T23:41:07.104Z,19.40
2017-11-14T23:43:35.396Z,17.50
2017-11-14T23:46:02.907Z,16.03
2017-11-14T23:48:31.256Z,15.30
2017-11-14T23:50:58.788Z,16.30
2017-11-14T23:53:26.584Z,17.90
2017-11-14T23:55:54.128Z,18.13
2017-11-14T23:58:21.656Z,16.17
